Time;durP1;ratioP1;P1;durP2;ratioP2;P2;SDS_P1;SDS_P2;PMS_P1;PMS_P2;Temp;Humidity;BMP_temperature;BMP_pressure;BME280_temperature;BME280_humidity;BME280_pressure;Samples;Min_cycle;Max_cycle;Signal;HPM_P1;HPM_P2
2022/02/09 00:05:46;;;;;;;2.10;1.75;;;;;;;10.29;0.00;60892.56;4858763;28;20025;-89
2022/02/09 00:08:25;;;;;;;2.75;2.22;;;;;;;-145.06;0.00;60892.56;4837303;28;20061;-90
2022/02/09 00:11:05;;;;;;;3.47;2.60;;;;;;;10.68;0.00;60892.56;4837112;28;20061;-89
2022/02/09 00:13:52;;;;;;;3.50;2.78;;;;;;;10.36;0.00;60892.56;4845581;28;20770;-89
2022/02/09 00:19:25;;;;;;;3.30;2.67;;;;;;;-145.06;0.00;60892.56;4837930;28;20109;-90
2022/02/09 00:41:41;;;;;;;3.40;2.55;;;;;;;-145.06;0.00;60892.56;4840692;28;20038;-90
2022/02/09 01:51:12;;;;;;;2.58;2.22;;;;;;;10.17;0.00;60892.56;4813958;28;20019;-89
2022/02/09 01:55:36;;;;;;;2.58;2.17;;;;;;;-145.06;0.00;60892.56;4838761;28;20037;-89
2022/02/09 01:58:15;;;;;;;4.07;3.05;;;;;;;-145.06;0.00;60892.56;4853364;28;20029;-90
2022/02/09 02:00:54;;;;;;;3.17;2.38;;;;;;;-145.06;0.00;60892.56;4850908;28;20034;-89
2022/02/09 02:03:33;;;;;;;2.88;2.55;;;;;;;-145.06;0.00;60892.56;4854853;28;20029;-90
2022/02/09 02:06:15;;;;;;;4.47;3.17;;;;;;;-145.06;0.00;60892.56;4844175;28;20740;-88
2022/02/09 02:08:54;;;;;;;4.47;2.85;;;;;;;10.36;0.00;60892.56;4838384;28;20037;-89
2022/02/09 02:11:41;;;;;;;4.57;2.40;;;;;;;10.16;0.00;60892.56;4851807;28;20476;-89
2022/02/09 02:14:39;;;;;;;4.90;2.70;;;;;;;10.15;0.00;60892.56;4842062;28;20037;-90
2022/02/09 02:17:37;;;;;;;2.92;2.20;;;;;;;-145.06;0.00;60892.56;4835574;28;20381;-90
2022/02/09 02:20:32;;;;;;;3.53;2.60;;;;;;;-145.06;0.00;60892.56;4851256;28;20029;-90
2022/02/09 02:23:35;;;;;;;2.10;1.90;;;;;;;-145.06;0.00;60892.56;4821303;28;20018;-90
2022/02/09 02:37:56;;;;;;;3.05;2.40;;;;;;;-145.06;0.00;60892.56;4832571;28;20034;-89
2022/02/09 02:58:12;;;;;;;3.00;2.00;;;;;;;-145.06;0.00;60892.56;4839001;28;20081;-89
2022/02/09 03:10:12;;;;;;;2.00;1.75;;;;;;;-145.06;0.00;60892.56;4833100;28;20034;-90
2022/02/09 03:13:03;;;;;;;2.92;2.17;;;;;;;10.10;0.00;60892.56;4831884;28;20030;-89
2022/02/09 03:15:54;;;;;;;2.67;1.70;;;;;;;-145.06;0.00;60892.56;4827031;28;20034;-90
2022/02/09 03:24:05;;;;;;;2.58;1.83;;;;;;;-145.06;0.00;60892.56;4824722;28;20038;-90
2022/02/09 03:58:21;;;;;;;1.63;1.35;;;;;;;-145.06;0.00;60892.56;4830585;28;20030;-89
2022/02/09 04:01:00;;;;;;;2.72;1.95;;;;;;;-145.06;0.00;60892.56;4827706;28;20030;-90
2022/02/09 04:03:39;;;;;;;2.60;1.70;;;;;;;10.09;0.00;60892.56;4830526;28;20412;-90
2022/02/09 04:06:19;;;;;;;1.65;1.42;;;;;;;-145.06;0.00;60892.56;4830328;28;20540;-89
2022/02/09 04:09:00;;;;;;;1.67;1.42;;;;;;;-145.06;0.00;60892.56;4823906;28;20117;-90
2022/02/09 04:17:18;;;;;;;4.03;1.98;;;;;;;-145.06;0.00;60892.56;4840605;28;20054;-89
2022/02/09 04:20:34;;;;;;;2.53;1.98;;;;;;;-145.06;0.00;60892.56;4837122;28;20026;-89
2022/02/09 04:36:05;;;;;;;1.90;1.30;;;;;;;10.07;0.00;60892.56;4823192;28;20038;-88
2022/02/09 04:38:08;;;;;;;2.80;1.98;;;;;;;-145.06;0.00;60892.56;4848130;28;20026;-88
2022/02/09 04:44:05;;;;;;;1.88;1.67;;;;;;;-145.06;0.00;60892.56;4830325;28;20030;-89
2022/02/09 04:52:29;;;;;;;1.80;1.40;;;;;;;-145.06;0.00;60892.56;4834838;28;20026;-89
2022/02/09 04:58:02;;;;;;;3.58;1.60;;;;;;;-145.06;0.00;60892.56;4831857;28;20034;-90
2022/02/09 05:00:53;;;;;;;2.20;2.00;;;;;;;-145.06;0.00;60892.56;4840774;28;20112;-87
2022/02/09 05:18:25;;;;;;;1.50;1.40;;;;;;;-145.06;0.00;60892.56;4837735;28;20030;-89
2022/02/09 05:27:02;;;;;;;1.50;1.30;;;;;;;-145.06;0.00;60892.56;4840638;28;20034;-89
2022/02/09 05:29:41;;;;;;;1.48;1.38;;;;;;;-145.06;0.00;60892.56;4830109;28;20360;-90
2022/02/09 05:32:20;;;;;;;1.55;1.00;;;;;;;-145.06;0.00;60892.56;4839877;28;20105;-89
2022/02/09 05:34:59;;;;;;;2.90;1.77;;;;;;;10.04;0.00;60892.56;4836633;28;20105;-89
2022/02/09 05:37:38;;;;;;;2.38;1.50;;;;;;;10.07;0.00;60892.56;4840498;28;20763;-89
2022/02/09 05:40:18;;;;;;;2.15;1.42;;;;;;;-145.06;0.00;60892.56;4834654;28;20030;-90
2022/02/09 05:42:57;;;;;;;;;;;;;;;-145.06;0.00;60892.56;4840420;28;20428;-88
2022/02/09 05:51:19;;;;;;;1.88;1.50;;;;;;;-145.06;0.00;60892.56;4837135;28;20034;-89
2022/02/09 05:54:18;;;;;;;1.60;1.50;;;;;;;-145.06;0.00;60892.56;4841531;28;20037;-89
2022/02/09 05:57:13;;;;;;;1.98;1.60;;;;;;;-145.06;0.00;60892.56;4841497;28;20026;-89
2022/02/09 05:59:52;;;;;;;1.38;1.13;;;;;;;-145.06;0.00;60892.56;4842196;28;20021;-90
2022/02/09 06:02:31;;;;;;;1.60;1.40;;;;;;;-145.06;0.00;60892.56;4838752;28;20029;-89
2022/02/09 06:05:12;;;;;;;1.45;1.13;;;;;;;-145.06;0.00;60892.56;4837760;28;20026;-89
2022/02/09 06:07:51;;;;;;;2.28;1.23;;;;;;;10.10;0.00;60892.56;4831103;28;20364;-88
2022/02/09 06:10:32;;;;;;;1.70;1.40;;;;;;;-145.06;0.00;60892.56;4852823;28;20025;-90
2022/02/09 06:13:28;;;;;;;2.50;1.33;;;;;;;-145.06;0.00;60892.56;4849582;28;20030;-88
2022/02/09 06:19:41;;;;;;;1.80;1.42;;;;;;;-145.06;0.00;60892.56;4841896;28;20033;-88
2022/02/09 06:22:04;;;;;;;2.22;1.40;;;;;;;-145.06;0.00;60892.56;4840241;28;20034;-89
2022/02/09 06:24:44;;;;;;;1.90;1.63;;;;;;;10.11;0.00;60892.56;4836890;28;20433;-90
2022/02/09 06:27:23;;;;;;;2.45;1.83;;;;;;;-145.06;0.00;60892.56;4845478;28;20109;-89
2022/02/09 06:30:03;;;;;;;1.80;1.48;;;;;;;-145.06;0.00;60892.56;4834381;28;20037;-89
2022/02/09 06:32:42;;;;;;;2.70;1.65;;;;;;;10.36;0.00;60892.56;4848227;28;20034;-89
2022/02/09 06:35:21;;;;;;;3.55;2.13;;;;;;;-145.06;0.00;60892.56;4836833;28;20033;-90
2022/02/09 06:38:02;;;;;;;2.08;1.73;;;;;;;-145.06;0.00;60892.56;4846124;28;20112;-90
2022/02/09 06:40:43;;;;;;;2.80;1.90;;;;;;;-145.06;0.00;60892.56;4842895;28;20093;-88
2022/02/09 06:43:22;;;;;;;2.17;1.95;;;;;;;-145.06;0.00;60892.56;4831373;28;20042;-90
2022/02/09 06:46:02;;;;;;;2.25;1.80;;;;;;;-145.06;0.00;60892.56;4835286;28;20030;-89
2022/02/09 06:48:41;;;;;;;;;;;;;;;-145.06;0.00;60892.56;4844242;28;20534;-89
2022/02/09 06:51:26;;;;;;;2.28;1.83;;;;;;;-145.06;0.00;60892.56;4838405;28;19999;-88
2022/02/09 06:54:27;;;;;;;1.95;1.40;;;;;;;-145.06;0.00;60892.56;4835729;28;20042;-88
2022/02/09 06:57:13;;;;;;;1.75;1.60;;;;;;;-145.06;0.00;60892.56;4851611;28;20030;-89
2022/02/09 06:59:51;;;;;;;2.92;1.85;;;;;;;10.09;0.00;60892.56;4838641;28;20026;-90
2022/02/09 07:02:30;;;;;;;2.50;1.53;;;;;;;-145.06;0.00;60892.56;4843764;28;20385;-89
2022/02/09 07:05:14;;;;;;;2.35;1.80;;;;;;;-145.06;0.00;60892.56;4835901;28;20041;-89
2022/02/09 07:07:53;;;;;;;2.15;1.60;;;;;;;-145.06;0.00;60892.56;4832926;28;20050;-90
2022/02/09 07:10:32;;;;;;;1.92;1.50;;;;;;;-145.06;0.00;60892.56;4836269;28;20069;-89
2022/02/09 07:13:11;;;;;;;2.67;1.70;;;;;;;10.20;0.00;60892.56;4835816;28;20492;-88
2022/02/09 07:15:53;;;;;;;1.87;1.40;;;;;;;-145.06;0.00;60892.56;4845767;28;20038;-90
2022/02/09 07:18:32;;;;;;;2.03;1.60;;;;;;;-145.06;0.00;60892.56;4852236;28;20042;-89
2022/02/09 07:21:16;;;;;;;2.20;1.40;;;;;;;10.07;0.00;60892.56;4833281;28;20365;-90
2022/02/09 07:23:58;;;;;;;1.40;1.30;;;;;;;-145.06;0.00;60892.56;4837651;28;20296;-90
2022/02/09 07:29:25;;;;;;;1.95;1.30;;;;;;;-145.06;0.00;60892.56;4832107;28;20475;-90
2022/02/09 07:32:05;;;;;;;1.25;1.10;;;;;;;-145.06;0.00;60892.56;4842094;28;20037;-89
2022/02/09 07:34:44;;;;;;;1.70;1.38;;;;;;;-145.06;0.00;60892.56;4842079;28;20483;-90
2022/02/09 07:37:23;;;;;;;1.70;1.30;;;;;;;-145.06;0.00;60892.56;4837108;28;20030;-90
2022/02/09 07:40:05;;;;;;;2.00;1.63;;;;;;;-145.06;0.00;60892.56;4830335;28;20277;-89
2022/02/09 07:42:49;;;;;;;2.00;1.38;;;;;;;-145.06;0.00;60892.56;4832633;28;20037;-90
2022/02/09 07:48:38;;;;;;;1.90;1.20;;;;;;;-145.06;0.00;60892.56;4836937;28;20073;-90
2022/02/09 07:54:00;;;;;;;1.25;1.02;;;;;;;-145.06;0.00;60892.56;4836921;28;20112;-90
2022/02/09 07:56:42;;;;;;;1.25;1.02;;;;;;;-145.06;0.00;60892.56;4832871;28;20042;-90
2022/02/09 07:59:20;;;;;;;2.03;1.48;;;;;;;-145.06;0.00;60892.56;4832810;28;20034;-88
2022/02/09 08:01:59;;;;;;;2.30;1.38;;;;;;;-145.06;0.00;60892.56;4835569;28;20034;-89
2022/02/09 08:04:38;;;;;;;1.57;1.20;;;;;;;-145.06;0.00;60892.56;4829476;28;20037;-89
2022/02/09 08:07:17;;;;;;;2.53;1.40;;;;;;;-145.06;0.00;60892.56;4840722;28;20037;-90
2022/02/09 08:09:58;;;;;;;1.73;1.38;;;;;;;-145.06;0.00;60892.56;4834241;28;20269;-89
2022/02/09 08:27:39;;;;;;;1.52;1.25;;;;;;;-145.06;0.00;60892.56;4833569;28;20026;-91
2022/02/09 08:33:05;;;;;;;3.60;2.00;;;;;;;-145.06;0.00;60892.56;4834735;28;20034;-90
2022/02/09 08:35:49;;;;;;;2.67;1.70;;;;;;;-145.06;0.00;60892.56;4832717;28;20113;-88
2022/02/09 08:38:30;;;;;;;2.90;2.08;;;;;;;-145.06;0.00;60892.56;4841271;28;20101;-89
2022/02/09 08:41:10;;;;;;;2.60;1.90;;;;;;;-145.06;0.00;60892.56;4834791;28;20033;-90
2022/02/09 08:43:49;;;;;;;2.28;1.60;;;;;;;-145.06;0.00;60892.56;4834890;28;20026;-90
2022/02/09 08:46:28;;;;;;;3.08;1.50;;;;;;;-145.06;0.00;60892.56;4834658;28;20041;-89
2022/02/09 08:49:07;;;;;;;2.13;1.42;;;;;;;-145.06;0.00;60892.56;4847576;28;20034;-90
2022/02/09 08:51:46;;;;;;;2.10;1.60;;;;;;;-145.06;0.00;60892.56;4829681;28;20030;-89
2022/02/09 08:54:27;;;;;;;2.70;2.10;;;;;;;-145.06;0.00;60892.56;4835723;28;20030;-90
2022/02/09 08:57:10;;;;;;;3.08;2.10;;;;;;;-145.06;0.00;60892.56;4834632;28;20475;-91
2022/02/09 08:59:51;;;;;;;3.20;2.20;;;;;;;-145.06;0.00;60892.56;4836220;28;20053;-89
2022/02/09 09:02:34;;;;;;;4.03;2.35;;;;;;;-145.06;0.00;60892.56;4852679;28;20033;-91
2022/02/09 09:05:26;;;;;;;3.00;2.10;;;;;;;-145.06;0.00;60892.56;4836325;28;20081;-91
2022/02/09 09:08:22;;;;;;;2.67;1.92;;;;;;;-145.06;0.00;60892.56;4837528;28;20027;-91
2022/02/09 10:02:07;;;;;;;2.42;1.70;;;;;;;-145.06;0.00;60892.56;4840038;28;20033;-90
2022/02/09 10:32:15;;;;;;;2.13;1.60;;;;;;;-145.06;0.00;60892.56;4835269;28;20022;-90
2022/02/09 10:34:47;;;;;;;5.40;1.58;;;;;;;-145.06;0.00;60892.56;4847467;28;20038;-89
2022/02/09 10:37:27;;;;;;;2.00;1.23;;;;;;;-145.06;0.00;60892.56;4852391;28;20539;-90
2022/02/09 10:40:12;;;;;;;;;;;;;;;10.68;0.00;60892.56;4850604;28;20065;-89
2022/02/09 10:42:58;;;;;;;2.03;1.00;;;;;;;-145.06;0.00;60892.56;4828102;28;19913;-89
2022/02/09 10:45:47;;;;;;;2.10;1.30;;;;;;;-145.06;0.00;60892.56;4838743;28;20026;-90
2022/02/09 10:48:35;;;;;;;3.33;1.60;;;;;;;-145.06;0.00;60892.56;4825789;28;20030;-90
2022/02/09 10:51:43;;;;;;;1.85;1.10;;;;;;;10.12;0.00;60892.56;4832967;28;20277;-90
2022/02/09 10:54:25;;;;;;;3.45;1.60;;;;;;;10.15;0.00;60892.56;4850639;28;20049;-90
2022/02/09 10:57:07;;;;;;;2.88;1.20;;;;;;;-145.06;0.00;60892.56;4832915;28;20069;-89
2022/02/09 10:59:48;;;;;;;3.60;1.50;;;;;;;-145.06;0.00;60892.56;4844899;28;20056;-90
2022/02/09 11:02:27;;;;;;;3.00;1.23;;;;;;;-145.06;0.00;60892.56;4824440;28;20025;-88
2022/02/09 11:05:07;;;;;;;2.33;1.30;;;;;;;-145.06;0.00;60892.56;4832918;28;20038;-89
2022/02/09 11:07:48;;;;;;;1.48;1.00;;;;;;;-145.06;0.00;60892.56;4823031;28;20070;-90
2022/02/09 11:10:27;;;;;;;1.48;0.98;;;;;;;10.44;0.00;60892.56;4848300;28;20037;-89
2022/02/09 11:13:09;;;;;;;7.03;1.70;;;;;;;10.47;0.00;60892.56;4838295;28;20033;-90
2022/02/09 11:15:49;;;;;;;1.90;1.17;;;;;;;10.52;0.00;60892.56;4832330;28;20112;-91
2022/02/09 11:18:28;;;;;;;3.80;1.30;;;;;;;-145.06;0.00;60892.56;4847406;28;20480;-89
2022/02/09 11:21:13;;;;;;;4.17;1.33;;;;;;;-145.06;0.00;60892.56;4843547;28;20034;-90
2022/02/09 11:24:11;;;;;;;5.63;1.48;;;;;;;-145.06;0.00;60892.56;4848324;28;20026;-90
2022/02/09 11:27:11;;;;;;;5.18;1.45;;;;;;;-145.06;0.00;60892.56;4851449;28;20037;-89
2022/02/09 11:30:11;;;;;;;;;;;;;;;-145.06;0.00;60892.56;4824569;28;20034;-90
2022/02/09 11:33:10;;;;;;;;;;;;;;;-145.06;0.00;60892.56;4852144;28;19917;-90
2022/02/09 11:36:35;;;;;;;6.20;1.30;;;;;;;-145.06;0.00;60892.56;4850203;28;20344;-90
2022/02/09 11:39:49;;;;;;;4.57;1.65;;;;;;;-145.06;0.00;60892.56;4837444;28;20365;-90
2022/02/09 11:42:52;;;;;;;2.50;1.30;;;;;;;-145.06;0.00;60892.56;4849665;28;20037;-90
2022/02/09 11:49:06;;;;;;;2.60;1.38;;;;;;;-145.06;0.00;60892.56;4836559;28;20029;-91
2022/02/09 11:55:19;;;;;;;2.33;1.38;;;;;;;-145.06;0.00;60892.56;4839000;28;20042;-91
2022/02/09 12:09:45;;;;;;;2.55;1.27;;;;;;;-145.06;0.00;60892.56;4829838;28;20038;-89
2022/02/09 12:12:39;;;;;;;4.28;1.42;;;;;;;11.71;0.00;60892.56;4832301;28;20034;-90
2022/02/09 12:15:52;;;;;;;3.22;1.20;;;;;;;-145.06;0.00;60892.56;4833751;28;20030;-90
2022/02/09 12:18:36;;;;;;;2.70;1.20;;;;;;;-145.06;0.00;60892.56;4834605;28;20033;-90
2022/02/09 12:21:17;;;;;;;3.47;1.20;;;;;;;-145.06;0.00;60892.56;4843783;28;20030;-90
2022/02/09 12:23:56;;;;;;;2.25;1.08;;;;;;;13.28;0.00;60892.56;4835092;28;20026;-92
2022/02/09 12:26:35;;;;;;;2.30;1.10;;;;;;;-145.06;0.00;60892.56;4836330;28;20061;-90
2022/02/09 12:29:14;;;;;;;3.93;1.13;;;;;;;-145.06;0.00;60892.56;4833871;28;20293;-91
2022/02/09 12:31:54;;;;;;;3.42;1.23;;;;;;;-145.06;0.00;60892.56;4834282;28;20484;-90
2022/02/09 12:34:34;;;;;;;3.13;1.10;;;;;;;12.67;0.00;60892.56;4837023;28;20037;-92
2022/02/09 12:37:13;;;;;;;;;;;;;;;-145.06;0.00;60892.56;4847377;28;20348;-90
2022/02/09 12:39:56;;;;;;;3.03;0.90;;;;;;;-145.06;0.00;60892.56;4833696;28;19917;-92
2022/02/09 12:42:38;;;;;;;1.35;0.80;;;;;;;-145.06;0.00;60892.56;4846065;28;20030;-92
2022/02/09 12:45:24;;;;;;;3.13;1.08;;;;;;;-145.06;0.00;60892.56;4838073;28;20073;-90
2022/02/09 12:48:06;;;;;;;2.70;0.80;;;;;;;-145.06;0.00;60892.56;4837196;28;20643;-91
2022/02/09 12:50:47;;;;;;;1.98;0.90;;;;;;;-145.06;0.00;60892.56;4831474;28;20062;-90
2022/02/09 12:53:28;;;;;;;2.25;1.00;;;;;;;-145.06;0.00;60892.56;4849214;28;20632;-90
2022/02/09 12:56:19;;;;;;;3.22;1.00;;;;;;;-145.06;0.00;60892.56;4835816;28;20766;-90
2022/02/09 12:59:00;;;;;;;1.33;0.85;;;;;;;-145.06;0.00;60892.56;4841082;28;20029;-90
2022/02/09 13:01:44;;;;;;;1.25;0.88;;;;;;;-145.06;0.00;60892.56;4841754;28;20041;-91
2022/02/09 13:04:35;;;;;;;2.25;0.77;;;;;;;-145.06;0.00;60892.56;4838520;28;20033;-92
2022/02/09 13:07:18;;;;;;;2.15;0.90;;;;;;;-145.06;0.00;60892.56;4853756;28;20093;-91
2022/02/09 13:09:57;;;;;;;2.53;1.10;;;;;;;-145.06;0.00;60892.56;4848406;28;20018;-92
2022/02/09 13:12:42;;;;;;;2.70;1.02;;;;;;;-145.06;0.00;60892.56;4833893;28;20034;-90
2022/02/09 13:15:29;;;;;;;1.63;0.82;;;;;;;-145.06;0.00;60892.56;4850715;28;20373;-91
2022/02/09 13:21:17;;;;;;;1.35;0.60;;;;;;;-145.06;0.00;60892.56;4838182;28;20053;-91
2022/02/09 13:54:29;;;;;;;0.77;0.55;;;;;;;-145.06;0.00;60892.56;4837457;28;20030;-92
2022/02/09 14:11:28;;;;;;;3.85;0.90;;;;;;;-145.06;0.00;60892.56;4831605;28;20025;-91
2022/02/09 14:17:03;;;;;;;2.93;0.90;;;;;;;-145.06;0.00;60892.56;4837161;28;20026;-91
2022/02/09 14:52:21;;;;;;;3.20;1.13;;;;;;;-145.06;0.00;60892.56;4830175;28;20033;-89
2022/02/09 14:55:19;;;;;;;2.28;0.85;;;;;;;-145.06;0.00;60892.56;4829427;28;20616;-91
2022/02/09 14:58:05;;;;;;;2.00;0.90;;;;;;;-145.06;0.00;60892.56;4829375;28;20037;-89
2022/02/09 15:09:49;;;;;;;1.42;0.70;;;;;;;-145.06;0.00;60892.56;4811855;28;20113;-90
2022/02/09 15:12:42;;;;;;;1.20;0.60;;;;;;;-145.06;0.00;60892.56;4834347;28;20492;-90
2022/02/09 15:15:52;;;;;;;2.05;0.80;;;;;;;-145.06;0.00;60892.56;4833941;28;20042;-90
2022/02/09 15:19:07;;;;;;;1.70;0.70;;;;;;;-145.06;0.00;60892.56;4846081;28;20034;-90
2022/02/09 15:24:35;;;;;;;1.75;0.73;;;;;;;-145.06;0.00;60892.56;4833535;28;20057;-91
2022/02/09 15:27:19;;;;;;;1.63;0.63;;;;;;;-145.06;0.00;60892.56;4834424;28;20033;-90
2022/02/09 15:29:58;;;;;;;1.88;0.77;;;;;;;-145.06;0.00;60892.56;4835061;28;20113;-92
2022/02/09 15:32:42;;;;;;;2.38;0.80;;;;;;;-145.06;0.00;60892.56;4851601;28;20038;-89
2022/02/09 15:35:32;;;;;;;1.50;0.70;;;;;;;-145.06;0.00;60892.56;4837209;28;20041;-90
2022/02/09 15:38:19;;;;;;;1.73;0.70;;;;;;;-145.06;0.00;60892.56;4830439;28;20482;-89
2022/02/09 15:41:11;;;;;;;1.15;0.55;;;;;;;187.52;0.00;60892.56;4833722;28;20046;-89
2022/02/09 16:44:59;;;;;;;1.80;0.93;;;;;;;-145.06;0.00;60892.56;4843850;28;20023;-88
2022/02/09 16:47:57;;;;;;;1.50;0.80;;;;;;;-145.06;0.00;60892.56;4834254;28;20626;-89
2022/02/09 16:50:40;;;;;;;1.33;0.90;;;;;;;-145.06;0.00;60892.56;4841391;28;20038;-89
2022/02/09 16:54:13;;;;;;;1.65;0.60;;;;;;;-145.06;0.00;60892.56;4843416;28;20041;-88
2022/02/09 17:19:49;;;;;;;2.25;0.75;;;;;;;10.38;0.00;60892.56;4836857;28;20042;-88
2022/02/09 17:22:28;;;;;;;2.90;0.90;;;;;;;-145.06;0.00;60892.56;4836757;28;20373;-89
2022/02/09 17:25:07;;;;;;;1.60;0.90;;;;;;;-145.06;0.00;60892.56;4834388;28;20029;-89
2022/02/09 17:27:48;;;;;;;1.23;0.85;;;;;;;-145.06;0.00;60892.56;4846871;28;20069;-88
2022/02/09 17:33:31;;;;;;;1.45;1.00;;;;;;;-145.06;0.00;60892.56;4834199;28;20034;-89
2022/02/09 17:36:19;;;;;;;4.35;1.13;;;;;;;-145.06;0.00;60892.56;4835203;28;20037;-90
2022/02/09 17:53:31;;;;;;;3.20;1.83;;;;;;;-145.06;0.00;60892.56;4831666;28;20030;-89
2022/02/09 17:56:20;;;;;;;2.90;1.98;;;;;;;-145.06;0.00;60892.56;4845683;28;20042;-88
2022/02/09 17:59:03;;;;;;;2.78;2.15;;;;;;;-145.06;0.00;60892.56;4833829;28;20077;-88
2022/02/09 18:01:41;;;;;;;2.80;2.00;;;;;;;-145.06;0.00;60892.56;4839649;28;20471;-87
2022/02/09 18:04:22;;;;;;;5.75;2.28;;;;;;;-145.06;0.00;60892.56;4831988;28;20117;-87
2022/02/09 18:07:06;;;;;;;3.13;1.90;;;;;;;-145.06;0.00;60892.56;4843593;28;20034;-88
2022/02/09 18:09:50;;;;;;;3.20;2.08;;;;;;;-145.06;0.00;60892.56;4834468;28;20108;-87
2022/02/09 18:12:48;;;;;;;3.50;2.10;;;;;;;9.38;0.00;60892.56;4836455;28;20030;-88
2022/02/09 18:28:29;;;;;;;4.90;2.10;;;;;;;-145.06;0.00;60892.56;4838553;28;20037;-88
2022/02/09 18:45:52;;;;;;;3.72;2.33;;;;;;;-145.06;0.00;60892.56;4840057;28;20053;-88
2022/02/09 19:03:06;;;;;;;4.53;2.20;;;;;;;-145.06;0.00;60892.56;4837813;28;20025;-88
2022/02/09 19:05:48;;;;;;;3.97;2.35;;;;;;;-145.06;0.00;60892.56;4824281;28;21689;-87
2022/02/09 19:14:23;;;;;;;5.22;2.63;;;;;;;-145.06;0.00;60892.56;4838252;28;20030;-88
2022/02/09 19:19:57;;;;;;;4.03;2.27;;;;;;;8.41;0.00;60892.56;4832557;28;20105;-87
2022/02/09 19:31:35;;;;;;;2.95;1.85;;;;;;;7.98;0.00;60892.56;4836196;28;20061;-86
2022/02/09 19:46:19;;;;;;;5.13;2.05;;;;;;;-145.06;0.00;60892.56;4844095;28;20034;-88
2022/02/09 19:49:12;;;;;;;4.25;2.33;;;;;;;-145.06;0.00;60892.56;4849019;28;20492;-88
2022/02/09 19:52:48;;;;;;;4.32;2.28;;;;;;;-145.06;0.00;60892.56;4830137;28;20034;-89
2022/02/09 19:55:19;;;;;;;4.13;1.95;;;;;;;21.08;0.00;60892.56;4835093;28;20077;-88
2022/02/09 19:58:00;;;;;;;4.70;2.42;;;;;;;-145.06;0.00;60892.56;4833182;28;20037;-88
2022/02/09 20:00:40;;;;;;;3.20;2.05;;;;;;;-145.06;0.00;60892.56;4852018;28;20029;-89
2022/02/09 20:03:19;;;;;;;4.47;2.40;;;;;;;-145.06;0.00;60892.56;4828907;28;20038;-88
2022/02/09 20:05:58;;;;;;;2.97;2.00;;;;;;;-145.06;0.00;60892.56;4845223;28;20038;-89
2022/02/09 20:08:38;;;;;;;3.30;2.15;;;;;;;-145.06;0.00;60892.56;4849780;28;20093;-88
2022/02/09 20:11:17;;;;;;;3.30;2.10;;;;;;;-145.06;0.00;60892.56;4844816;28;20054;-88
2022/02/09 20:13:56;;;;;;;4.00;2.25;;;;;;;-145.06;0.00;60892.56;4844132;28;20034;-88
2022/02/09 20:16:35;;;;;;;3.13;2.20;;;;;;;-145.06;0.00;60892.56;4824107;28;20038;-89
2022/02/09 20:19:14;;;;;;;4.70;2.30;;;;;;;-145.06;0.00;60892.56;4843549;28;20393;-88
2022/02/09 20:21:53;;;;;;;3.55;2.30;;;;;;;-145.06;0.00;60892.56;4829897;28;20137;-88
2022/02/09 20:24:32;;;;;;;5.75;2.58;;;;;;;-145.06;0.00;60892.56;4828732;28;20380;-88
2022/02/09 20:27:14;;;;;;;5.05;2.58;;;;;;;-145.06;0.00;60892.56;4848740;28;20042;-88
2022/02/09 20:29:54;;;;;;;4.05;2.40;;;;;;;-145.06;0.00;60892.56;4828894;28;20042;-88
2022/02/09 20:32:38;;;;;;;3.47;2.38;;;;;;;-145.06;0.00;60892.56;4831282;28;20483;-89
2022/02/09 20:35:19;;;;;;;4.22;2.40;;;;;;;-145.06;0.00;60892.56;4830416;28;20062;-89
2022/02/09 20:37:58;;;;;;;4.95;2.70;;;;;;;-145.06;0.00;60892.56;4849102;28;20042;-87
2022/02/09 20:40:48;;;;;;;4.00;2.57;;;;;;;-145.06;0.00;60892.56;4828630;28;20033;-88
2022/02/09 20:43:27;;;;;;;5.47;2.50;;;;;;;-145.06;0.00;60892.56;4828405;28;20483;-89
2022/02/09 20:46:07;;;;;;;4.55;2.50;;;;;;;-145.06;0.00;60892.56;4830925;28;20416;-89
2022/02/09 20:48:46;;;;;;;6.53;3.03;;;;;;;-145.06;0.00;60892.56;4832227;28;20042;-88
2022/02/09 20:51:25;;;;;;;2.97;2.37;;;;;;;-145.06;0.00;60892.56;4828005;28;20380;-87
2022/02/09 20:54:04;;;;;;;3.40;2.25;;;;;;;-145.06;0.00;60892.56;4830777;28;20110;-89
2022/02/09 20:56:43;;;;;;;4.17;2.57;;;;;;;-145.06;0.00;60892.56;4831164;28;20030;-88
2022/02/09 20:59:22;;;;;;;3.97;2.27;;;;;;;-145.06;0.00;60892.56;4834359;28;20038;-87
2022/02/09 21:02:17;;;;;;;4.15;2.63;;;;;;;-145.06;0.00;60892.56;4834461;28;20041;-88
2022/02/09 21:05:07;;;;;;;3.33;2.35;;;;;;;-145.06;0.00;60892.56;4847046;28;20144;-88
2022/02/09 21:07:55;;;;;;;5.13;2.60;;;;;;;-145.06;0.00;60892.56;4839897;28;20057;-89
2022/02/09 21:13:51;;;;;;;3.30;2.05;;;;;;;-145.06;0.00;60892.56;4828884;28;20038;-88
2022/02/09 21:22:48;;;;;;;4.25;2.15;;;;;;;-145.06;0.00;60892.56;4833751;28;20029;-88
2022/02/09 21:46:03;;;;;;;5.47;2.70;;;;;;;6.79;0.00;60892.56;4828405;28;20765;-89
2022/02/09 21:53:49;;;;;;;3.43;2.17;;;;;;;-145.06;0.00;60892.56;4834965;28;20034;-88
2022/02/09 21:56:43;;;;;;;3.15;2.05;;;;;;;-145.06;0.00;60892.56;4826662;28;20273;-87
2022/02/09 22:22:41;;;;;;;3.90;2.00;;;;;;;-145.06;0.00;60892.56;4833785;28;20050;-88
2022/02/09 22:28:26;;;;;;;3.08;1.70;;;;;;;-145.06;0.00;60892.56;4832070;28;20033;-89
2022/02/09 22:49:19;;;;;;;2.40;1.50;;;;;;;-145.06;0.00;60892.56;4832065;28;20376;-89
2022/02/09 22:54:59;;;;;;;3.47;1.75;;;;;;;-145.06;0.00;60892.56;4837147;28;20735;-89
2022/02/09 22:57:51;;;;;;;3.67;1.90;;;;;;;-145.06;0.00;60892.56;4823667;28;20544;-89
2022/02/09 23:14:52;;;;;;;3.10;1.67;;;;;;;-145.06;0.00;60892.56;4828583;28;20038;-89
2022/02/09 23:52:46;;;;;;;1.63;1.47;;;;;;;5.43;0.00;60892.56;4838496;28;20042;-88
